sensor_id;sensor_type;location;lat;lon;timestamp;temperature;humidity
4050;DHT22;2039;50.894;6.888;2023-01-29T00:01:52;-2.30;99.90
4050;DHT22;2039;50.894;6.888;2023-01-29T00:04:17;-2.30;99.90
4050;DHT22;2039;50.894;6.888;2023-01-29T00:06:43;-2.40;99.90
4050;DHT22;2039;50.894;6.888;2023-01-29T00:09:10;-2.40;99.90
4050;DHT22;2039;50.894;6.888;2023-01-29T00:11:36;-2.40;99.90
4050;DHT22;2039;50.894;6.888;2023-01-29T00:14:01;-2.40;99.90
4050;DHT22;2039;50.894;6.888;2023-01-29T00:16:27;-2.30;99.90
4050;DHT22;2039;50.894;6.888;2023-01-29T00:18:53;-2.40;99.90
4050;DHT22;2039;50.894;6.888;2023-01-29T00:21:20;-2.40;99.90
4050;DHT22;2039;50.894;6.888;2023-01-29T00:23:49;-2.50;99.90
4050;DHT22;2039;50.894;6.888;2023-01-29T00:26:16;-2.50;99.90
4050;DHT22;2039;50.894;6.888;2023-01-29T00:28:41;-2.50;99.90
4050;DHT22;2039;50.894;6.888;2023-01-29T00:31:16;-2.50;99.90
4050;DHT22;2039;50.894;6.888;2023-01-29T00:33:42;-2.50;99.90
4050;DHT22;2039;50.894;6.888;2023-01-29T00:36:10;-2.50;99.90
4050;DHT22;2039;50.894;6.888;2023-01-29T00:38:37;-2.50;99.90
4050;DHT22;2039;50.894;6.888;2023-01-29T00:41:11;-2.40;99.90
4050;DHT22;2039;50.894;6.888;2023-01-29T00:43:56;-2.40;99.90
4050;DHT22;2039;50.894;6.888;2023-01-29T00:46:40;-2.50;99.90
4050;DHT22;2039;50.894;6.888;2023-01-29T00:49:06;-2.50;99.90
4050;DHT22;2039;50.894;6.888;2023-01-29T00:51:32;-2.50;99.90
4050;DHT22;2039;50.894;6.888;2023-01-29T00:53:58;-2.60;99.90
4050;DHT22;2039;50.894;6.888;2023-01-29T00:56:30;-2.60;99.90
4050;DHT22;2039;50.894;6.888;2023-01-29T00:58:56;-2.60;99.90
4050;DHT22;2039;50.894;6.888;2023-01-29T01:01:22;-2.60;99.90
4050;DHT22;2039;50.894;6.888;2023-01-29T01:04:08;-2.60;99.90
4050;DHT22;2039;50.894;6.888;2023-01-29T01:06:36;-2.60;99.90
4050;DHT22;2039;50.894;6.888;2023-01-29T01:09:02;-2.60;99.90
4050;DHT22;2039;50.894;6.888;2023-01-29T01:11:46;-2.60;99.90
4050;DHT22;2039;50.894;6.888;2023-01-29T01:14:17;-2.60;99.90
4050;DHT22;2039;50.894;6.888;2023-01-29T01:16:44;-2.70;99.90
4050;DHT22;2039;50.894;6.888;2023-01-29T01:19:10;-2.60;99.90
4050;DHT22;2039;50.894;6.888;2023-01-29T01:21:37;-2.60;99.90
4050;DHT22;2039;50.894;6.888;2023-01-29T01:24:05;-2.60;99.90
4050;DHT22;2039;50.894;6.888;2023-01-29T01:26:31;-2.60;99.90
4050;DHT22;2039;50.894;6.888;2023-01-29T01:28:58;-2.70;99.90
4050;DHT22;2039;50.894;6.888;2023-01-29T01:31:24;-2.70;99.90
4050;DHT22;2039;50.894;6.888;2023-01-29T01:33:49;-2.80;99.90
4050;DHT22;2039;50.894;6.888;2023-01-29T01:36:16;-2.80;99.90
4050;DHT22;2039;50.894;6.888;2023-01-29T01:38:43;-2.80;99.90
4050;DHT22;2039;50.894;6.888;2023-01-29T01:41:14;-2.80;99.90
4050;DHT22;2039;50.894;6.888;2023-01-29T01:44:06;-2.80;99.90
4050;DHT22;2039;50.894;6.888;2023-01-29T01:46:36;-2.80;99.90
4050;DHT22;2039;50.894;6.888;2023-01-29T01:49:07;-2.90;99.90
4050;DHT22;2039;50.894;6.888;2023-01-29T01:51:38;-2.90;99.90
4050;DHT22;2039;50.894;6.888;2023-01-29T01:54:19;-2.90;99.90
4050;DHT22;2039;50.894;6.888;2023-01-29T01:56:51;-2.90;99.90
4050;DHT22;2039;50.894;6.888;2023-01-29T01:59:21;-2.80;99.90
4050;DHT22;2039;50.894;6.888;2023-01-29T02:01:50;-2.80;99.90
4050;DHT22;2039;50.894;6.888;2023-01-29T02:04:23;-2.80;99.90
4050;DHT22;2039;50.894;6.888;2023-01-29T02:07:11;-2.90;99.90
4050;DHT22;2039;50.894;6.888;2023-01-29T02:10:07;-2.90;99.90
4050;DHT22;2039;50.894;6.888;2023-01-29T02:12:35;-2.90;99.90
4050;DHT22;2039;50.894;6.888;2023-01-29T02:15:02;-2.90;99.90
4050;DHT22;2039;50.894;6.888;2023-01-29T02:17:28;-2.90;99.90
4050;DHT22;2039;50.894;6.888;2023-01-29T02:20:14;-2.90;99.90
4050;DHT22;2039;50.894;6.888;2023-01-29T02:30:45;-2.90;99.90
4050;DHT22;2039;50.894;6.888;2023-01-29T02:36:19;-2.90;99.90
4050;DHT22;2039;50.894;6.888;2023-01-29T02:42:09;-3.00;99.90
4050;DHT22;2039;50.894;6.888;2023-01-29T02:44:47;-2.90;99.90
4050;DHT22;2039;50.894;6.888;2023-01-29T02:47:57;-3.00;99.90
4050;DHT22;2039;50.894;6.888;2023-01-29T02:50:24;-3.00;99.90
4050;DHT22;2039;50.894;6.888;2023-01-29T02:53:15;-3.10;99.90
4050;DHT22;2039;50.894;6.888;2023-01-29T02:55:55;-3.00;99.90
4050;DHT22;2039;50.894;6.888;2023-01-29T03:00:55;-2.80;99.90
4050;DHT22;2039;50.894;6.888;2023-01-29T03:03:29;-2.90;99.90
4050;DHT22;2039;50.894;6.888;2023-01-29T03:06:10;-3.00;99.90
4050;DHT22;2039;50.894;6.888;2023-01-29T03:08:58;-2.90;99.90
4050;DHT22;2039;50.894;6.888;2023-01-29T03:11:34;-3.00;99.90
4050;DHT22;2039;50.894;6.888;2023-01-29T03:14:30;-3.00;99.90
4050;DHT22;2039;50.894;6.888;2023-01-29T03:17:20;-3.00;99.90
4050;DHT22;2039;50.894;6.888;2023-01-29T03:19:47;-3.10;99.90
4050;DHT22;2039;50.894;6.888;2023-01-29T03:22:14;-3.00;99.90
4050;DHT22;2039;50.894;6.888;2023-01-29T03:27:44;-3.10;99.90
4050;DHT22;2039;50.894;6.888;2023-01-29T03:30:32;-3.00;99.90
4050;DHT22;2039;50.894;6.888;2023-01-29T03:33:19;-3.00;99.90
4050;DHT22;2039;50.894;6.888;2023-01-29T03:35:57;-3.00;99.90
4050;DHT22;2039;50.894;6.888;2023-01-29T03:38:25;-2.90;99.90
4050;DHT22;2039;50.894;6.888;2023-01-29T03:46:26;-3.10;99.90
4050;DHT22;2039;50.894;6.888;2023-01-29T03:54:53;-3.20;99.90
4050;DHT22;2039;50.894;6.888;2023-01-29T03:57:27;-3.10;99.90
4050;DHT22;2039;50.894;6.888;2023-01-29T04:00:15;-3.10;99.90
4050;DHT22;2039;50.894;6.888;2023-01-29T04:05:48;-3.10;99.90
4050;DHT22;2039;50.894;6.888;2023-01-29T04:08:22;-3.10;99.90
4050;DHT22;2039;50.894;6.888;2023-01-29T04:10:50;-3.10;99.90
4050;DHT22;2039;50.894;6.888;2023-01-29T04:13:21;-3.10;99.90
4050;DHT22;2039;50.894;6.888;2023-01-29T04:15:57;-3.10;99.90
4050;DHT22;2039;50.894;6.888;2023-01-29T04:18:24;-3.20;99.90
4050;DHT22;2039;50.894;6.888;2023-01-29T04:20:50;-3.20;99.90
4050;DHT22;2039;50.894;6.888;2023-01-29T04:23:25;-3.10;99.90
4050;DHT22;2039;50.894;6.888;2023-01-29T04:29:24;-3.10;99.90
4050;DHT22;2039;50.894;6.888;2023-01-29T04:32:04;-3.20;99.90
4050;DHT22;2039;50.894;6.888;2023-01-29T04:34:53;-3.30;99.90
4050;DHT22;2039;50.894;6.888;2023-01-29T04:40:11;-3.30;99.90
4050;DHT22;2039;50.894;6.888;2023-01-29T04:43:07;-3.30;99.90
4050;DHT22;2039;50.894;6.888;2023-01-29T04:45:47;-3.20;99.90
4050;DHT22;2039;50.894;6.888;2023-01-29T04:48:26;-3.30;99.90
4050;DHT22;2039;50.894;6.888;2023-01-29T04:51:21;-3.30;99.90
4050;DHT22;2039;50.894;6.888;2023-01-29T04:53:58;-3.20;99.90
4050;DHT22;2039;50.894;6.888;2023-01-29T04:59:18;-3.10;99.90
4050;DHT22;2039;50.894;6.888;2023-01-29T05:01:46;-3.20;99.90
4050;DHT22;2039;50.894;6.888;2023-01-29T05:04:14;-3.30;99.90
4050;DHT22;2039;50.894;6.888;2023-01-29T05:06:42;-3.30;99.90
4050;DHT22;2039;50.894;6.888;2023-01-29T05:09:12;-3.20;99.90
4050;DHT22;2039;50.894;6.888;2023-01-29T05:11:39;-3.30;99.90
4050;DHT22;2039;50.894;6.888;2023-01-29T05:14:08;-3.30;99.90
4050;DHT22;2039;50.894;6.888;2023-01-29T05:16:45;-3.30;99.90
4050;DHT22;2039;50.894;6.888;2023-01-29T05:19:13;-3.30;99.90
4050;DHT22;2039;50.894;6.888;2023-01-29T05:21:42;-3.30;99.90
4050;DHT22;2039;50.894;6.888;2023-01-29T05:24:18;-3.30;99.90
4050;DHT22;2039;50.894;6.888;2023-01-29T05:26:46;-3.30;99.90
4050;DHT22;2039;50.894;6.888;2023-01-29T05:29:30;-3.40;99.90
4050;DHT22;2039;50.894;6.888;2023-01-29T05:31:56;-3.30;99.90
4050;DHT22;2039;50.894;6.888;2023-01-29T05:34:22;-3.30;99.90
4050;DHT22;2039;50.894;6.888;2023-01-29T05:36:48;-3.30;99.90
4050;DHT22;2039;50.894;6.888;2023-01-29T05:39:14;-3.20;99.90
4050;DHT22;2039;50.894;6.888;2023-01-29T05:41:40;-3.30;99.90
4050;DHT22;2039;50.894;6.888;2023-01-29T05:44:05;-3.20;99.90
4050;DHT22;2039;50.894;6.888;2023-01-29T05:46:31;-3.30;99.90
4050;DHT22;2039;50.894;6.888;2023-01-29T05:48:57;-3.30;99.90
4050;DHT22;2039;50.894;6.888;2023-01-29T05:51:23;-3.30;99.90
4050;DHT22;2039;50.894;6.888;2023-01-29T05:53:49;-3.20;99.90
4050;DHT22;2039;50.894;6.888;2023-01-29T05:56:15;-3.20;99.90
4050;DHT22;2039;50.894;6.888;2023-01-29T05:58:40;-3.30;99.90
4050;DHT22;2039;50.894;6.888;2023-01-29T06:01:10;-3.10;99.90
4050;DHT22;2039;50.894;6.888;2023-01-29T06:03:35;-3.20;99.90
4050;DHT22;2039;50.894;6.888;2023-01-29T06:06:01;-3.20;99.90
4050;DHT22;2039;50.894;6.888;2023-01-29T06:08:27;-3.20;99.90
4050;DHT22;2039;50.894;6.888;2023-01-29T06:10:52;-3.20;99.90
4050;DHT22;2039;50.894;6.888;2023-01-29T06:13:18;-3.10;99.90
4050;DHT22;2039;50.894;6.888;2023-01-29T06:15:44;-3.10;99.90
4050;DHT22;2039;50.894;6.888;2023-01-29T06:18:09;-3.10;99.90
4050;DHT22;2039;50.894;6.888;2023-01-29T06:20:36;-3.10;99.90
4050;DHT22;2039;50.894;6.888;2023-01-29T06:23:01;-3.20;99.90
4050;DHT22;2039;50.894;6.888;2023-01-29T06:25:27;-3.20;99.90
4050;DHT22;2039;50.894;6.888;2023-01-29T06:27:55;-3.20;99.90
4050;DHT22;2039;50.894;6.888;2023-01-29T06:30:21;-3.20;99.90
4050;DHT22;2039;50.894;6.888;2023-01-29T06:32:46;-3.20;99.90
4050;DHT22;2039;50.894;6.888;2023-01-29T06:35:12;-3.30;99.90
4050;DHT22;2039;50.894;6.888;2023-01-29T06:37:38;-3.30;99.90
4050;DHT22;2039;50.894;6.888;2023-01-29T06:40:04;-3.30;99.90
4050;DHT22;2039;50.894;6.888;2023-01-29T06:42:30;-3.30;99.90
4050;DHT22;2039;50.894;6.888;2023-01-29T06:44:56;-3.20;99.90
4050;DHT22;2039;50.894;6.888;2023-01-29T06:47:22;-3.30;99.90
4050;DHT22;2039;50.894;6.888;2023-01-29T06:49:48;-3.30;99.90
4050;DHT22;2039;50.894;6.888;2023-01-29T06:52:14;-3.30;99.90
4050;DHT22;2039;50.894;6.888;2023-01-29T06:54:40;-3.30;99.90
4050;DHT22;2039;50.894;6.888;2023-01-29T06:57:05;-3.30;99.90
4050;DHT22;2039;50.894;6.888;2023-01-29T06:59:31;-3.30;99.90
4050;DHT22;2039;50.894;6.888;2023-01-29T07:01:57;-3.30;99.90
4050;DHT22;2039;50.894;6.888;2023-01-29T07:04:22;-3.30;99.90
4050;DHT22;2039;50.894;6.888;2023-01-29T07:06:48;-3.30;99.90
4050;DHT22;2039;50.894;6.888;2023-01-29T07:09:14;-3.30;99.90
4050;DHT22;2039;50.894;6.888;2023-01-29T07:11:39;-3.30;99.90
4050;DHT22;2039;50.894;6.888;2023-01-29T07:14:05;-3.30;99.90
4050;DHT22;2039;50.894;6.888;2023-01-29T07:16:32;-3.30;99.90
4050;DHT22;2039;50.894;6.888;2023-01-29T07:18:57;-3.30;99.90
4050;DHT22;2039;50.894;6.888;2023-01-29T07:21:23;-3.20;99.90
4050;DHT22;2039;50.894;6.888;2023-01-29T07:23:49;-3.10;99.90
4050;DHT22;2039;50.894;6.888;2023-01-29T07:26:15;-3.10;99.90
4050;DHT22;2039;50.894;6.888;2023-01-29T07:28:41;-3.00;99.90
4050;DHT22;2039;50.894;6.888;2023-01-29T07:31:08;-2.90;99.90
4050;DHT22;2039;50.894;6.888;2023-01-29T07:33:35;-2.80;99.90
4050;DHT22;2039;50.894;6.888;2023-01-29T07:36:08;-2.70;99.90
4050;DHT22;2039;50.894;6.888;2023-01-29T07:38:34;-2.60;99.90
4050;DHT22;2039;50.894;6.888;2023-01-29T07:41:00;-2.60;99.90
4050;DHT22;2039;50.894;6.888;2023-01-29T07:43:25;-2.50;99.90
4050;DHT22;2039;50.894;6.888;2023-01-29T07:46:10;-2.40;99.90
4050;DHT22;2039;50.894;6.888;2023-01-29T07:48:36;-2.40;99.90
4050;DHT22;2039;50.894;6.888;2023-01-29T07:51:01;-2.30;99.90
4050;DHT22;2039;50.894;6.888;2023-01-29T07:53:28;-2.20;99.90
4050;DHT22;2039;50.894;6.888;2023-01-29T07:55:54;-2.10;99.90
4050;DHT22;2039;50.894;6.888;2023-01-29T07:58:20;-2.00;99.90
4050;DHT22;2039;50.894;6.888;2023-01-29T08:00:45;-2.00;99.90
4050;DHT22;2039;50.894;6.888;2023-01-29T08:03:13;-2.00;99.90
4050;DHT22;2039;50.894;6.888;2023-01-29T08:05:41;-2.00;99.90
4050;DHT22;2039;50.894;6.888;2023-01-29T08:08:06;-2.00;99.90
4050;DHT22;2039;50.894;6.888;2023-01-29T08:10:33;-1.90;99.90
4050;DHT22;2039;50.894;6.888;2023-01-29T08:13:00;-1.80;99.90
4050;DHT22;2039;50.894;6.888;2023-01-29T08:15:27;-1.70;99.90
4050;DHT22;2039;50.894;6.888;2023-01-29T08:17:53;-1.70;99.90
4050;DHT22;2039;50.894;6.888;2023-01-29T08:20:19;-1.60;99.90
4050;DHT22;2039;50.894;6.888;2023-01-29T08:22:45;-1.60;99.90
4050;DHT22;2039;50.894;6.888;2023-01-29T08:25:11;-1.60;99.90
4050;DHT22;2039;50.894;6.888;2023-01-29T08:27:37;-1.60;99.90
4050;DHT22;2039;50.894;6.888;2023-01-29T08:30:04;-1.60;99.90
4050;DHT22;2039;50.894;6.888;2023-01-29T08:32:30;-1.50;99.90
4050;DHT22;2039;50.894;6.888;2023-01-29T08:34:56;-1.50;99.90
4050;DHT22;2039;50.894;6.888;2023-01-29T08:37:22;-1.50;99.90
4050;DHT22;2039;50.894;6.888;2023-01-29T08:39:47;-1.50;99.90
4050;DHT22;2039;50.894;6.888;2023-01-29T08:42:13;-1.40;99.90
4050;DHT22;2039;50.894;6.888;2023-01-29T08:44:38;-1.40;99.90
4050;DHT22;2039;50.894;6.888;2023-01-29T08:47:04;-1.40;99.90
4050;DHT22;2039;50.894;6.888;2023-01-29T08:49:30;-1.40;99.90
4050;DHT22;2039;50.894;6.888;2023-01-29T08:51:55;-1.30;99.90
4050;DHT22;2039;50.894;6.888;2023-01-29T08:54:22;-1.30;99.90
4050;DHT22;2039;50.894;6.888;2023-01-29T08:56:48;-1.30;99.90
4050;DHT22;2039;50.894;6.888;2023-01-29T08:59:14;-1.30;99.90
4050;DHT22;2039;50.894;6.888;2023-01-29T09:01:40;-1.30;99.90
4050;DHT22;2039;50.894;6.888;2023-01-29T09:04:06;-1.20;99.90
4050;DHT22;2039;50.894;6.888;2023-01-29T09:06:31;-1.20;99.90
4050;DHT22;2039;50.894;6.888;2023-01-29T09:08:57;-1.20;99.90
4050;DHT22;2039;50.894;6.888;2023-01-29T09:11:23;-1.20;99.90
4050;DHT22;2039;50.894;6.888;2023-01-29T09:13:49;-1.10;99.90
4050;DHT22;2039;50.894;6.888;2023-01-29T09:16:14;-1.10;99.90
4050;DHT22;2039;50.894;6.888;2023-01-29T09:18:40;-1.10;99.90
4050;DHT22;2039;50.894;6.888;2023-01-29T09:21:06;-1.00;99.90
4050;DHT22;2039;50.894;6.888;2023-01-29T09:23:31;-1.00;99.90
4050;DHT22;2039;50.894;6.888;2023-01-29T09:25:57;-1.00;99.90
4050;DHT22;2039;50.894;6.888;2023-01-29T09:28:23;-1.00;99.90
4050;DHT22;2039;50.894;6.888;2023-01-29T09:30:49;-1.00;99.90
4050;DHT22;2039;50.894;6.888;2023-01-29T09:33:14;-0.90;99.90
4050;DHT22;2039;50.894;6.888;2023-01-29T09:35:41;-0.90;99.90
4050;DHT22;2039;50.894;6.888;2023-01-29T09:38:09;-0.90;99.90
4050;DHT22;2039;50.894;6.888;2023-01-29T09:41:04;-0.90;99.90
4050;DHT22;2039;50.894;6.888;2023-01-29T09:43:46;-0.90;99.90
4050;DHT22;2039;50.894;6.888;2023-01-29T09:46:19;-0.70;99.90
4050;DHT22;2039;50.894;6.888;2023-01-29T09:48:49;-0.70;99.90
4050;DHT22;2039;50.894;6.888;2023-01-29T09:51:29;-0.70;99.90
4050;DHT22;2039;50.894;6.888;2023-01-29T09:56:37;-0.50;99.90
4050;DHT22;2039;50.894;6.888;2023-01-29T09:59:02;-0.40;99.90
4050;DHT22;2039;50.894;6.888;2023-01-29T10:18:26;0.00;99.90
4050;DHT22;2039;50.894;6.888;2023-01-29T10:23:31;0.20;99.90
4050;DHT22;2039;50.894;6.888;2023-01-29T10:25:58;0.30;99.90
4050;DHT22;2039;50.894;6.888;2023-01-29T10:28:39;0.20;99.90
4050;DHT22;2039;50.894;6.888;2023-01-29T10:33:41;0.30;99.90
4050;DHT22;2039;50.894;6.888;2023-01-29T10:36:15;0.50;99.90
4050;DHT22;2039;50.894;6.888;2023-01-29T10:38:51;0.60;99.90
4050;DHT22;2039;50.894;6.888;2023-01-29T10:44:26;0.60;99.90
4050;DHT22;2039;50.894;6.888;2023-01-29T10:47:05;0.70;99.90
4050;DHT22;2039;50.894;6.888;2023-01-29T10:52:22;1.00;99.90
4050;DHT22;2039;50.894;6.888;2023-01-29T11:00:42;0.90;99.90
4050;DHT22;2039;50.894;6.888;2023-01-29T11:03:24;0.80;99.90
4050;DHT22;2039;50.894;6.888;2023-01-29T11:05:56;0.70;99.90
4050;DHT22;2039;50.894;6.888;2023-01-29T11:08:27;0.60;99.90
4050;DHT22;2039;50.894;6.888;2023-01-29T11:11:05;0.50;99.90
4050;DHT22;2039;50.894;6.888;2023-01-29T11:13:37;0.50;99.90
4050;DHT22;2039;50.894;6.888;2023-01-29T11:16:04;0.60;99.90
4050;DHT22;2039;50.894;6.888;2023-01-29T11:18:51;0.60;99.90
4050;DHT22;2039;50.894;6.888;2023-01-29T11:21:17;0.60;99.90
4050;DHT22;2039;50.894;6.888;2023-01-29T11:23:43;0.80;99.90
4050;DHT22;2039;50.894;6.888;2023-01-29T11:26:12;0.80;99.90
4050;DHT22;2039;50.894;6.888;2023-01-29T11:28:45;1.00;99.90
4050;DHT22;2039;50.894;6.888;2023-01-29T11:31:26;1.00;99.90
4050;DHT22;2039;50.894;6.888;2023-01-29T11:34:11;1.10;99.90
4050;DHT22;2039;50.894;6.888;2023-01-29T11:36:45;1.20;99.90
4050;DHT22;2039;50.894;6.888;2023-01-29T11:39:18;1.20;99.90
4050;DHT22;2039;50.894;6.888;2023-01-29T11:44:38;1.30;99.90
4050;DHT22;2039;50.894;6.888;2023-01-29T11:47:29;1.50;99.90
4050;DHT22;2039;50.894;6.888;2023-01-29T11:50:19;1.50;99.90
4050;DHT22;2039;50.894;6.888;2023-01-29T11:52:48;1.50;99.90
4050;DHT22;2039;50.894;6.888;2023-01-29T11:55:30;1.60;99.90
4050;DHT22;2039;50.894;6.888;2023-01-29T11:58:15;1.80;99.90
4050;DHT22;2039;50.894;6.888;2023-01-29T12:00:45;1.70;99.90
4050;DHT22;2039;50.894;6.888;2023-01-29T12:03:20;1.90;99.90
4050;DHT22;2039;50.894;6.888;2023-01-29T12:05:58;1.80;97.40
4050;DHT22;2039;50.894;6.888;2023-01-29T12:08:33;1.60;96.10
4050;DHT22;2039;50.894;6.888;2023-01-29T12:14:02;1.80;98.20
4050;DHT22;2039;50.894;6.888;2023-01-29T12:16:55;1.90;97.20
4050;DHT22;2039;50.894;6.888;2023-01-29T12:22:07;2.00;95.20
4050;DHT22;2039;50.894;6.888;2023-01-29T12:27:58;2.00;90.90
4050;DHT22;2039;50.894;6.888;2023-01-29T12:30:54;1.90;93.10
4050;DHT22;2039;50.894;6.888;2023-01-29T12:33:40;1.90;94.10
4050;DHT22;2039;50.894;6.888;2023-01-29T12:36:13;2.00;94.30
4050;DHT22;2039;50.894;6.888;2023-01-29T12:38:43;2.10;94.40
4050;DHT22;2039;50.894;6.888;2023-01-29T12:43:58;2.30;92.20
4050;DHT22;2039;50.894;6.888;2023-01-29T12:46:33;2.30;90.00
4050;DHT22;2039;50.894;6.888;2023-01-29T12:49:03;2.30;89.70
4050;DHT22;2039;50.894;6.888;2023-01-29T12:51:55;2.30;91.60
4050;DHT22;2039;50.894;6.888;2023-01-29T12:54:39;2.30;89.40
4050;DHT22;2039;50.894;6.888;2023-01-29T12:57:44;2.40;90.30
4050;DHT22;2039;50.894;6.888;2023-01-29T13:00:37;2.60;90.70
4050;DHT22;2039;50.894;6.888;2023-01-29T13:05:56;2.80;74.50
4050;DHT22;2039;50.894;6.888;2023-01-29T13:08:41;2.90;74.90
4050;DHT22;2039;50.894;6.888;2023-01-29T13:11:16;2.80;71.50
4050;DHT22;2039;50.894;6.888;2023-01-29T13:13:53;2.80;74.10
4050;DHT22;2039;50.894;6.888;2023-01-29T13:16:22;2.80;81.60
4050;DHT22;2039;50.894;6.888;2023-01-29T13:21:26;2.70;80.60
4050;DHT22;2039;50.894;6.888;2023-01-29T13:24:03;2.80;76.00
4050;DHT22;2039;50.894;6.888;2023-01-29T13:26:30;2.70;75.00
4050;DHT22;2039;50.894;6.888;2023-01-29T13:28:57;2.80;78.80
4050;DHT22;2039;50.894;6.888;2023-01-29T13:31:29;2.80;73.60
4050;DHT22;2039;50.894;6.888;2023-01-29T13:34:11;2.80;76.20
4050;DHT22;2039;50.894;6.888;2023-01-29T13:36:45;2.90;75.80
4050;DHT22;2039;50.894;6.888;2023-01-29T13:39:19;3.00;71.50
4050;DHT22;2039;50.894;6.888;2023-01-29T13:41:47;3.10;73.20
4050;DHT22;2039;50.894;6.888;2023-01-29T13:44:27;3.10;72.50
4050;DHT22;2039;50.894;6.888;2023-01-29T13:46:56;3.00;72.50
4050;DHT22;2039;50.894;6.888;2023-01-29T13:49:40;3.00;75.30
4050;DHT22;2039;50.894;6.888;2023-01-29T13:52:23;2.90;73.30
4050;DHT22;2039;50.894;6.888;2023-01-29T13:55:00;2.70;77.70
4050;DHT22;2039;50.894;6.888;2023-01-29T13:57:36;2.80;80.00
4050;DHT22;2039;50.894;6.888;2023-01-29T14:02:45;2.80;78.40
4050;DHT22;2039;50.894;6.888;2023-01-29T14:07:59;2.80;85.00
4050;DHT22;2039;50.894;6.888;2023-01-29T14:10:27;2.80;86.30
4050;DHT22;2039;50.894;6.888;2023-01-29T14:15:30;2.90;89.50
4050;DHT22;2039;50.894;6.888;2023-01-29T14:23:40;3.10;80.50
4050;DHT22;2039;50.894;6.888;2023-01-29T14:26:33;2.90;72.60
4050;DHT22;2039;50.894;6.888;2023-01-29T14:34:24;3.10;74.50
4050;DHT22;2039;50.894;6.888;2023-01-29T14:36:55;3.20;66.80
4050;DHT22;2039;50.894;6.888;2023-01-29T14:39:36;3.30;61.30
4050;DHT22;2039;50.894;6.888;2023-01-29T14:42:33;3.20;60.00
4050;DHT22;2039;50.894;6.888;2023-01-29T14:49:58;3.20;56.40
4050;DHT22;2039;50.894;6.888;2023-01-29T14:52:37;3.10;53.50
4050;DHT22;2039;50.894;6.888;2023-01-29T14:55:12;3.10;52.60
4050;DHT22;2039;50.894;6.888;2023-01-29T14:57:41;3.00;56.70
4050;DHT22;2039;50.894;6.888;2023-01-29T15:00:19;3.00;1.00
4050;DHT22;2039;50.894;6.888;2023-01-29T15:02:49;3.00;1.00
4050;DHT22;2039;50.894;6.888;2023-01-29T15:05:19;3.00;1.00
4050;DHT22;2039;50.894;6.888;2023-01-29T15:07:54;3.00;4.00
4050;DHT22;2039;50.894;6.888;2023-01-29T15:10:47;3.00;9.60
4050;DHT22;2039;50.894;6.888;2023-01-29T15:15:50;3.00;31.10
4050;DHT22;2039;50.894;6.888;2023-01-29T15:18:31;3.00;19.80
4050;DHT22;2039;50.894;6.888;2023-01-29T15:21:08;3.00;30.90
4050;DHT22;2039;50.894;6.888;2023-01-29T15:23:36;3.10;20.10
4050;DHT22;2039;50.894;6.888;2023-01-29T15:26:05;3.10;15.70
4050;DHT22;2039;50.894;6.888;2023-01-29T15:28:34;3.00;47.40
4050;DHT22;2039;50.894;6.888;2023-01-29T15:31:05;2.90;52.90
4050;DHT22;2039;50.894;6.888;2023-01-29T15:33:36;2.90;66.30
4050;DHT22;2039;50.894;6.888;2023-01-29T15:36:05;2.90;76.50
4050;DHT22;2039;50.894;6.888;2023-01-29T15:38:31;2.90;83.70
4050;DHT22;2039;50.894;6.888;2023-01-29T15:40:59;2.90;48.30
4050;DHT22;2039;50.894;6.888;2023-01-29T15:43:26;2.90;41.90
4050;DHT22;2039;50.894;6.888;2023-01-29T15:45:56;2.90;53.00
4050;DHT22;2039;50.894;6.888;2023-01-29T15:48:33;2.90;79.10
4050;DHT22;2039;50.894;6.888;2023-01-29T15:51:00;2.80;71.90
4050;DHT22;2039;50.894;6.888;2023-01-29T15:53:41;2.90;99.90
4050;DHT22;2039;50.894;6.888;2023-01-29T15:56:13;2.90;99.90
4050;DHT22;2039;50.894;6.888;2023-01-29T15:58:41;2.80;99.90
4050;DHT22;2039;50.894;6.888;2023-01-29T16:01:07;2.80;1.00
4050;DHT22;2039;50.894;6.888;2023-01-29T16:03:35;2.80;1.00
4050;DHT22;2039;50.894;6.888;2023-01-29T16:06:02;2.80;39.10
4050;DHT22;2039;50.894;6.888;2023-01-29T16:08:28;2.80;70.70
4050;DHT22;2039;50.894;6.888;2023-01-29T16:11:00;2.80;71.70
4050;DHT22;2039;50.894;6.888;2023-01-29T16:13:28;2.80;73.10
4050;DHT22;2039;50.894;6.888;2023-01-29T16:15:58;2.80;75.20
4050;DHT22;2039;50.894;6.888;2023-01-29T16:18:35;2.80;77.30
4050;DHT22;2039;50.894;6.888;2023-01-29T16:21:13;2.70;78.00
4050;DHT22;2039;50.894;6.888;2023-01-29T16:23:51;2.80;76.30
4050;DHT22;2039;50.894;6.888;2023-01-29T16:26:23;2.80;75.00
4050;DHT22;2039;50.894;6.888;2023-01-29T16:28:49;2.80;81.10
4050;DHT22;2039;50.894;6.888;2023-01-29T16:31:26;2.80;77.80
4050;DHT22;2039;50.894;6.888;2023-01-29T16:33:52;2.90;80.50
4050;DHT22;2039;50.894;6.888;2023-01-29T16:36:20;2.90;80.90
4050;DHT22;2039;50.894;6.888;2023-01-29T16:39:01;2.80;80.60
4050;DHT22;2039;50.894;6.888;2023-01-29T16:41:35;2.80;83.20
4050;DHT22;2039;50.894;6.888;2023-01-29T16:46:48;2.80;82.30
4050;DHT22;2039;50.894;6.888;2023-01-29T16:51:52;2.80;80.90
4050;DHT22;2039;50.894;6.888;2023-01-29T16:54:22;2.80;80.00
4050;DHT22;2039;50.894;6.888;2023-01-29T16:56:53;2.80;80.60
4050;DHT22;2039;50.894;6.888;2023-01-29T16:59:34;2.70;84.40
4050;DHT22;2039;50.894;6.888;2023-01-29T17:02:01;2.70;83.80
4050;DHT22;2039;50.894;6.888;2023-01-29T17:04:28;2.70;80.70
4050;DHT22;2039;50.894;6.888;2023-01-29T17:06:56;2.70;78.20
4050;DHT22;2039;50.894;6.888;2023-01-29T17:09:34;2.80;78.80
4050;DHT22;2039;50.894;6.888;2023-01-29T17:12:06;2.70;79.30
4050;DHT22;2039;50.894;6.888;2023-01-29T17:14:35;2.70;83.60
4050;DHT22;2039;50.894;6.888;2023-01-29T17:17:13;2.60;84.20
4050;DHT22;2039;50.894;6.888;2023-01-29T17:19:39;2.60;89.00
4050;DHT22;2039;50.894;6.888;2023-01-29T17:22:05;2.60;88.20
4050;DHT22;2039;50.894;6.888;2023-01-29T17:24:33;2.60;89.30
4050;DHT22;2039;50.894;6.888;2023-01-29T17:27:00;2.50;91.20
4050;DHT22;2039;50.894;6.888;2023-01-29T17:29:29;2.50;92.70
4050;DHT22;2039;50.894;6.888;2023-01-29T17:31:55;2.50;93.30
4050;DHT22;2039;50.894;6.888;2023-01-29T17:34:22;2.40;93.10
4050;DHT22;2039;50.894;6.888;2023-01-29T17:36:48;2.40;93.90
4050;DHT22;2039;50.894;6.888;2023-01-29T17:39:23;2.50;93.70
4050;DHT22;2039;50.894;6.888;2023-01-29T17:41:51;2.40;93.60
4050;DHT22;2039;50.894;6.888;2023-01-29T17:44:18;2.40;94.00
4050;DHT22;2039;50.894;6.888;2023-01-29T17:46:43;2.40;94.90
4050;DHT22;2039;50.894;6.888;2023-01-29T17:49:30;2.40;94.50
4050;DHT22;2039;50.894;6.888;2023-01-29T17:52:00;2.40;94.50
4050;DHT22;2039;50.894;6.888;2023-01-29T17:54:26;2.30;94.30
4050;DHT22;2039;50.894;6.888;2023-01-29T17:56:53;2.30;94.00
4050;DHT22;2039;50.894;6.888;2023-01-29T17:59:21;2.30;93.60
4050;DHT22;2039;50.894;6.888;2023-01-29T18:01:47;2.30;94.10
4050;DHT22;2039;50.894;6.888;2023-01-29T18:04:13;2.40;93.40
4050;DHT22;2039;50.894;6.888;2023-01-29T18:06:40;2.40;93.50
4050;DHT22;2039;50.894;6.888;2023-01-29T18:09:09;2.30;93.80
4050;DHT22;2039;50.894;6.888;2023-01-29T18:11:36;2.40;92.90
4050;DHT22;2039;50.894;6.888;2023-01-29T18:14:02;2.40;93.00
4050;DHT22;2039;50.894;6.888;2023-01-29T18:16:27;2.40;92.40
4050;DHT22;2039;50.894;6.888;2023-01-29T18:18:55;2.40;92.00
4050;DHT22;2039;50.894;6.888;2023-01-29T18:21:21;2.40;90.40
4050;DHT22;2039;50.894;6.888;2023-01-29T18:23:47;2.30;90.50
4050;DHT22;2039;50.894;6.888;2023-01-29T18:26:14;2.40;91.00
4050;DHT22;2039;50.894;6.888;2023-01-29T18:28:40;2.30;90.40
4050;DHT22;2039;50.894;6.888;2023-01-29T18:31:08;2.30;88.40
4050;DHT22;2039;50.894;6.888;2023-01-29T18:33:36;2.30;89.20
4050;DHT22;2039;50.894;6.888;2023-01-29T18:36:02;2.30;85.20
4050;DHT22;2039;50.894;6.888;2023-01-29T18:38:31;2.30;86.80
4050;DHT22;2039;50.894;6.888;2023-01-29T18:41:04;2.30;88.10
4050;DHT22;2039;50.894;6.888;2023-01-29T18:43:31;2.30;87.60
4050;DHT22;2039;50.894;6.888;2023-01-29T18:46:00;2.40;89.00
4050;DHT22;2039;50.894;6.888;2023-01-29T18:48:26;2.40;88.00